PWSweather.com
Personal Weather Stations
Station Observations
WISCHPK61
Green Bay Schmitt Park, Green Bay, WI 54311

Green Bay Schmitt ParkGreen Bay, WI 54311

Lat: 44.514277, Lon: -87.935067

Elevation: 735

Station Type: Acu Rite Pro Weather Center model 02032C

http://greenbayweathercam.com

High Low Average
Temperature 74.9°F23.8°C 44.4°F6.9°C 56.2°F13.4°C
Dew Point 74.6°F23.7°C 40.8°F4.9°C 54.2°F12.3°C
Winds 2.3 mph 3.7 kmh Calm Calm Calm WSWCalm WSW
Wind Gusts 5.8 mph9.3 kmh -- --
Humidity 99% 51% 94%
Pressure 29.13 in986.5 mb 28.87 in977.7 mb -
Precipitation 0.04 in1.0 mm - -
Hour Temp Dew Point Humidity Winds Wind Gusts Pressure Precip Precip Rate Daily Precip Total
12:00 AM 42.4°F5.8°C 41.6°F5.3°C 97% Calm Calm -- 29.05 in983.7 mb - 0.00 in0.0 mm 0.00 in0.0 mm
01:00 AM 44.8°F7.1°C 44.5°F6.9°C 99% Calm Calm -- 29.04 in983.4 mb - 0.00 in0.0 mm 0.00 in0.0 mm
02:00 AM 46.4°F8.0°C 45.9°F7.7°C 98% Calm Calm -- 29.03 in983.1 mb - 0.00 in0.0 mm 0.00 in0.0 mm
03:00 AM 47.3°F8.5°C 47.0°F8.3°C 99% Calm Calm -- 29.05 in983.7 mb - 0.00 in0.0 mm 0.00 in0.0 mm
04:00 AM 47.3°F8.5°C 46.8°F8.2°C 98% Calm Calm -- 29.06 in984.1 mb - 0.01 in0.3 mm 0.01 in0.3 mm
05:00 AM 46.8°F8.2°C 46.5°F8.1°C 99% Calm Calm -- 29.09 in985.1 mb - 0.00 in0.0 mm 0.01 in0.3 mm
06:00 AM 45.0°F7.2°C 44.7°F7.1°C 99% Calm Calm -- 29.09 in985.1 mb - 0.00 in0.0 mm 0.01 in0.3 mm
07:00 AM 44.4°F6.9°C 44.1°F6.7°C 99% Calm Calm -- 29.10 in985.4 mb - 0.00 in0.0 mm 0.01 in0.3 mm
08:00 AM 46.4°F8.0°C 46.1°F7.8°C 99% Calm Calm -- 29.12 in986.1 mb - 0.01 in0.3 mm 0.02 in0.5 mm
09:00 AM 50.0°F10.0°C 49.7°F9.8°C 99% Calm Calm -- 29.11 in985.8 mb - 0.00 in0.0 mm 0.02 in0.5 mm
10:00 AM 57.3°F14.1°C 57.1°F13.9°C 99% Calm Calm -- 29.12 in986.1 mb - 0.00 in0.0 mm 0.02 in0.5 mm
11:00 AM 64.9°F18.3°C 64.6°F18.1°C 99% Calm Calm -- 29.13 in986.5 mb - 0.00 in0.0 mm 0.02 in0.5 mm
12:00 PM 68.3°F20.2°C 61.5°F16.4°C 79% Calm Calm -- 29.11 in985.8 mb - 0.00 in0.0 mm 0.02 in0.5 mm
01:00 PM 72.2°F22.3°C 71.9°F22.2°C 99% Calm Calm -- 29.09 in985.1 mb - 0.00 in0.0 mm 0.02 in0.5 mm
02:00 PM 74.9°F23.8°C 74.6°F23.7°C 99% Calm Calm -- 29.05 in983.7 mb - 0.00 in0.0 mm 0.02 in0.5 mm
03:00 PM 73.6°F23.1°C 73.3°F22.9°C 99% Calm Calm 1.2 mph1.9 kmh 29.01 in982.4 mb - 0.00 in0.0 mm 0.02 in0.5 mm
04:00 PM 69.5°F20.8°C 69.2°F20.7°C 99% Calm Calm -- 28.96 in980.7 mb - 0.00 in0.0 mm 0.02 in0.5 mm
05:00 PM 70.0°F21.1°C 51.1°F10.6°C 51% 1.2 mph S1.9 kmh S 5.8 mph9.3 kmh 28.93 in979.7 mb - 0.00 in0.0 mm 0.02 in0.5 mm
06:00 PM 67.5°F19.7°C 67.2°F19.6°C 99% Calm Calm 1.2 mph1.9 kmh 28.87 in977.7 mb - 0.00 in0.0 mm 0.02 in0.5 mm
07:00 PM 57.7°F14.3°C 49.8°F9.9°C 75% Calm Calm -- 28.93 in979.7 mb - 0.02 in0.5 mm 0.04 in1.0 mm
08:00 PM 54.9°F12.7°C 54.6°F12.6°C 99% Calm Calm -- 28.94 in980.0 mb - 0.00 in0.0 mm 0.04 in1.0 mm
09:00 PM 53.1°F11.7°C 52.8°F11.6°C 99% 2.3 mph NW3.7 kmh NW 1.2 mph1.9 kmh 28.99 in981.7 mb - 0.00 in0.0 mm 0.04 in1.0 mm
10:00 PM 51.6°F10.9°C 51.3°F10.7°C 99% Calm Calm -- 29.03 in983.1 mb - 0.00 in0.0 mm 0.04 in1.0 mm
11:00 PM 48.4°F9.1°C 40.8°F4.9°C 75% Calm Calm -- 29.06 in984.1 mb - 0.00 in0.0 mm 0.04 in1.0 mm